sensor_id;sensor_type;location;lat;lon;timestamp;P1;durP1;ratioP1;P2;durP2;ratioP2
31306;SDS011;17935;51.120;13.132;2023-03-13T00:34:38;14.48;;;4.20;;
31306;SDS011;17935;51.120;13.132;2023-03-13T00:37:04;20.63;;;5.22;;
31306;SDS011;17935;51.120;13.132;2023-03-13T00:39:30;22.88;;;5.55;;
31306;SDS011;17935;51.120;13.132;2023-03-13T00:41:56;21.95;;;5.28;;
31306;SDS011;17935;51.120;13.132;2023-03-13T00:44:22;13.25;;;3.90;;
31306;SDS011;17935;51.120;13.132;2023-03-13T00:46:48;24.70;;;6.07;;
31306;SDS011;17935;51.120;13.132;2023-03-13T00:49:14;23.15;;;6.90;;
31306;SDS011;17935;51.120;13.132;2023-03-13T00:51:40;17.38;;;4.43;;
31306;SDS011;17935;51.120;13.132;2023-03-13T00:54:06;19.25;;;5.13;;
31306;SDS011;17935;51.120;13.132;2023-03-13T00:56:32;18.27;;;4.50;;
31306;SDS011;17935;51.120;13.132;2023-03-13T00:58:58;24.90;;;5.88;;
31306;SDS011;17935;51.120;13.132;2023-03-13T01:01:26;19.35;;;4.90;;
31306;SDS011;17935;51.120;13.132;2023-03-13T01:03:54;24.48;;;4.43;;
31306;SDS011;17935;51.120;13.132;2023-03-13T01:06:21;22.27;;;4.65;;
31306;SDS011;17935;51.120;13.132;2023-03-13T01:08:47;24.80;;;4.90;;
31306;SDS011;17935;51.120;13.132;2023-03-13T01:11:17;17.75;;;5.20;;
31306;SDS011;17935;51.120;13.132;2023-03-13T01:13:43;20.05;;;4.75;;
31306;SDS011;17935;51.120;13.132;2023-03-13T01:16:11;20.33;;;4.93;;
31306;SDS011;17935;51.120;13.132;2023-03-13T01:18:38;15.68;;;4.30;;
31306;SDS011;17935;51.120;13.132;2023-03-13T01:21:04;16.77;;;4.88;;
31306;SDS011;17935;51.120;13.132;2023-03-13T01:23:30;30.63;;;5.43;;
31306;SDS011;17935;51.120;13.132;2023-03-13T01:25:56;21.05;;;4.88;;
31306;SDS011;17935;51.120;13.132;2023-03-13T01:28:23;25.08;;;5.85;;
31306;SDS011;17935;51.120;13.132;2023-03-13T01:30:49;17.92;;;4.43;;
31306;SDS011;17935;51.120;13.132;2023-03-13T01:33:15;35.97;;;4.97;;
31306;SDS011;17935;51.120;13.132;2023-03-13T01:35:41;20.75;;;3.83;;
31306;SDS011;17935;51.120;13.132;2023-03-13T01:38:07;26.10;;;5.65;;
31306;SDS011;17935;51.120;13.132;2023-03-13T01:41:07;24.95;;;5.18;;
31306;SDS011;17935;51.120;13.132;2023-03-13T01:43:26;28.40;;;5.88;;
31306;SDS011;17935;51.120;13.132;2023-03-13T01:51:20;17.52;;;3.88;;
31306;SDS011;17935;51.120;13.132;2023-03-13T01:53:49;15.30;;;3.20;;
31306;SDS011;17935;51.120;13.132;2023-03-13T01:56:19;21.58;;;5.05;;
31306;SDS011;17935;51.120;13.132;2023-03-13T01:58:47;21.77;;;4.38;;
31306;SDS011;17935;51.120;13.132;2023-03-13T02:01:14;22.85;;;4.55;;
31306;SDS011;17935;51.120;13.132;2023-03-13T02:03:40;19.20;;;4.35;;
31306;SDS011;17935;51.120;13.132;2023-03-13T02:06:07;22.67;;;4.90;;
31306;SDS011;17935;51.120;13.132;2023-03-13T02:09:16;20.60;;;4.20;;
31306;SDS011;17935;51.120;13.132;2023-03-13T02:14:15;19.67;;;4.18;;
31306;SDS011;17935;51.120;13.132;2023-03-13T02:16:41;25.58;;;3.85;;
31306;SDS011;17935;51.120;13.132;2023-03-13T02:19:19;27.60;;;5.15;;
31306;SDS011;17935;51.120;13.132;2023-03-13T02:21:52;25.20;;;4.80;;
31306;SDS011;17935;51.120;13.132;2023-03-13T02:26:46;19.95;;;4.97;;
31306;SDS011;17935;51.120;13.132;2023-03-13T02:29:12;24.98;;;7.57;;
31306;SDS011;17935;51.120;13.132;2023-03-13T02:31:42;21.13;;;4.45;;
31306;SDS011;17935;51.120;13.132;2023-03-13T02:34:08;19.42;;;4.90;;
31306;SDS011;17935;51.120;13.132;2023-03-13T02:36:35;25.58;;;5.03;;
31306;SDS011;17935;51.120;13.132;2023-03-13T02:39:02;24.48;;;4.93;;
31306;SDS011;17935;51.120;13.132;2023-03-13T02:41:28;26.25;;;5.78;;
31306;SDS011;17935;51.120;13.132;2023-03-13T02:43:55;18.77;;;4.10;;
31306;SDS011;17935;51.120;13.132;2023-03-13T02:46:21;21.77;;;4.72;;
31306;SDS011;17935;51.120;13.132;2023-03-13T02:48:48;23.15;;;4.32;;
31306;SDS011;17935;51.120;13.132;2023-03-13T02:51:25;27.75;;;5.65;;
31306;SDS011;17935;51.120;13.132;2023-03-13T02:53:54;21.20;;;4.30;;
31306;SDS011;17935;51.120;13.132;2023-03-13T02:56:23;22.10;;;4.35;;
31306;SDS011;17935;51.120;13.132;2023-03-13T02:58:50;15.07;;;3.78;;
31306;SDS011;17935;51.120;13.132;2023-03-13T03:01:16;22.50;;;4.47;;
31306;SDS011;17935;51.120;13.132;2023-03-13T03:03:42;17.30;;;4.25;;
31306;SDS011;17935;51.120;13.132;2023-03-13T03:06:08;21.45;;;4.00;;
31306;SDS011;17935;51.120;13.132;2023-03-13T03:08:34;22.05;;;6.55;;
31306;SDS011;17935;51.120;13.132;2023-03-13T03:11:00;25.85;;;4.40;;
31306;SDS011;17935;51.120;13.132;2023-03-13T03:13:26;26.08;;;4.45;;
31306;SDS011;17935;51.120;13.132;2023-03-13T03:15:52;24.85;;;4.22;;
31306;SDS011;17935;51.120;13.132;2023-03-13T03:18:18;25.40;;;4.85;;
31306;SDS011;17935;51.120;13.132;2023-03-13T03:20:44;27.58;;;6.65;;
31306;SDS011;17935;51.120;13.132;2023-03-13T03:23:10;23.63;;;3.80;;
31306;SDS011;17935;51.120;13.132;2023-03-13T03:25:36;17.17;;;3.92;;
31306;SDS011;17935;51.120;13.132;2023-03-13T03:28:02;18.42;;;4.22;;
31306;SDS011;17935;51.120;13.132;2023-03-13T03:30:28;21.98;;;4.88;;
31306;SDS011;17935;51.120;13.132;2023-03-13T03:32:54;17.80;;;3.75;;
31306;SDS011;17935;51.120;13.132;2023-03-13T03:35:19;32.28;;;4.40;;
31306;SDS011;17935;51.120;13.132;2023-03-13T03:37:45;23.52;;;5.65;;
31306;SDS011;17935;51.120;13.132;2023-03-13T03:40:11;19.25;;;4.20;;
31306;SDS011;17935;51.120;13.132;2023-03-13T03:42:37;19.30;;;3.80;;
31306;SDS011;17935;51.120;13.132;2023-03-13T03:45:03;14.68;;;3.90;;
31306;SDS011;17935;51.120;13.132;2023-03-13T03:47:29;24.17;;;4.45;;
31306;SDS011;17935;51.120;13.132;2023-03-13T03:49:55;25.52;;;4.57;;
31306;SDS011;17935;51.120;13.132;2023-03-13T03:52:21;19.35;;;4.32;;
31306;SDS011;17935;51.120;13.132;2023-03-13T03:54:47;26.75;;;4.18;;
31306;SDS011;17935;51.120;13.132;2023-03-13T03:57:13;22.27;;;4.47;;
31306;SDS011;17935;51.120;13.132;2023-03-13T03:59:39;20.00;;;3.63;;
31306;SDS011;17935;51.120;13.132;2023-03-13T04:02:05;26.73;;;6.80;;
31306;SDS011;17935;51.120;13.132;2023-03-13T04:04:30;14.35;;;3.30;;
31306;SDS011;17935;51.120;13.132;2023-03-13T04:06:56;19.92;;;4.50;;
31306;SDS011;17935;51.120;13.132;2023-03-13T04:09:22;33.05;;;4.20;;
31306;SDS011;17935;51.120;13.132;2023-03-13T04:11:48;19.65;;;3.45;;
31306;SDS011;17935;51.120;13.132;2023-03-13T04:14:14;21.40;;;4.25;;
31306;SDS011;17935;51.120;13.132;2023-03-13T04:16:40;20.65;;;3.97;;
31306;SDS011;17935;51.120;13.132;2023-03-13T04:19:06;21.45;;;4.90;;
31306;SDS011;17935;51.120;13.132;2023-03-13T04:21:32;16.10;;;3.55;;
31306;SDS011;17935;51.120;13.132;2023-03-13T04:23:58;26.08;;;4.07;;
31306;SDS011;17935;51.120;13.132;2023-03-13T04:26:24;28.48;;;4.90;;
31306;SDS011;17935;51.120;13.132;2023-03-13T04:28:50;28.35;;;6.15;;
31306;SDS011;17935;51.120;13.132;2023-03-13T04:31:16;19.42;;;4.15;;
31306;SDS011;17935;51.120;13.132;2023-03-13T04:33:42;17.60;;;3.83;;
31306;SDS011;17935;51.120;13.132;2023-03-13T04:36:08;15.20;;;4.30;;
31306;SDS011;17935;51.120;13.132;2023-03-13T04:38:34;22.40;;;4.32;;
31306;SDS011;17935;51.120;13.132;2023-03-13T04:41:00;15.57;;;3.65;;
31306;SDS011;17935;51.120;13.132;2023-03-13T04:43:25;15.07;;;4.32;;
31306;SDS011;17935;51.120;13.132;2023-03-13T04:45:51;21.63;;;5.38;;
31306;SDS011;17935;51.120;13.132;2023-03-13T04:48:21;27.45;;;4.85;;
31306;SDS011;17935;51.120;13.132;2023-03-13T04:50:47;27.77;;;4.03;;
31306;SDS011;17935;51.120;13.132;2023-03-13T04:53:13;21.60;;;4.28;;
31306;SDS011;17935;51.120;13.132;2023-03-13T04:55:39;18.70;;;3.28;;
31306;SDS011;17935;51.120;13.132;2023-03-13T04:58:06;26.25;;;3.83;;
31306;SDS011;17935;51.120;13.132;2023-03-13T05:00:32;26.77;;;4.38;;
31306;SDS011;17935;51.120;13.132;2023-03-13T05:02:57;22.88;;;3.72;;
31306;SDS011;17935;51.120;13.132;2023-03-13T05:05:23;16.55;;;3.47;;
31306;SDS011;17935;51.120;13.132;2023-03-13T05:07:49;24.90;;;4.05;;
31306;SDS011;17935;51.120;13.132;2023-03-13T05:10:15;24.08;;;5.03;;
31306;SDS011;17935;51.120;13.132;2023-03-13T05:12:41;27.60;;;4.75;;
31306;SDS011;17935;51.120;13.132;2023-03-13T05:15:07;21.40;;;4.40;;
31306;SDS011;17935;51.120;13.132;2023-03-13T05:17:33;22.95;;;4.40;;
31306;SDS011;17935;51.120;13.132;2023-03-13T05:19:59;19.17;;;4.10;;
31306;SDS011;17935;51.120;13.132;2023-03-13T05:22:25;15.50;;;4.47;;
31306;SDS011;17935;51.120;13.132;2023-03-13T05:24:51;16.20;;;3.58;;
31306;SDS011;17935;51.120;13.132;2023-03-13T05:27:17;23.33;;;4.18;;
31306;SDS011;17935;51.120;13.132;2023-03-13T05:29:43;18.23;;;4.32;;
31306;SDS011;17935;51.120;13.132;2023-03-13T05:32:08;18.40;;;4.45;;
31306;SDS011;17935;51.120;13.132;2023-03-13T05:34:34;17.48;;;3.40;;
31306;SDS011;17935;51.120;13.132;2023-03-13T05:37:00;22.15;;;3.88;;
31306;SDS011;17935;51.120;13.132;2023-03-13T05:39:26;15.30;;;3.92;;
31306;SDS011;17935;51.120;13.132;2023-03-13T05:41:52;26.05;;;4.70;;
31306;SDS011;17935;51.120;13.132;2023-03-13T05:44:18;21.42;;;4.25;;
31306;SDS011;17935;51.120;13.132;2023-03-13T05:46:44;13.60;;;3.38;;
31306;SDS011;17935;51.120;13.132;2023-03-13T05:49:10;18.90;;;3.55;;
31306;SDS011;17935;51.120;13.132;2023-03-13T05:51:36;13.50;;;3.45;;
31306;SDS011;17935;51.120;13.132;2023-03-13T05:54:01;16.00;;;3.90;;
31306;SDS011;17935;51.120;13.132;2023-03-13T05:56:28;22.42;;;3.88;;
31306;SDS011;17935;51.120;13.132;2023-03-13T05:58:54;21.15;;;4.43;;
31306;SDS011;17935;51.120;13.132;2023-03-13T06:01:20;17.30;;;3.63;;
31306;SDS011;17935;51.120;13.132;2023-03-13T06:03:46;21.02;;;4.43;;
31306;SDS011;17935;51.120;13.132;2023-03-13T06:06:12;19.92;;;2.97;;
31306;SDS011;17935;51.120;13.132;2023-03-13T06:08:38;14.68;;;3.90;;
31306;SDS011;17935;51.120;13.132;2023-03-13T06:11:04;16.88;;;4.38;;
31306;SDS011;17935;51.120;13.132;2023-03-13T06:13:30;17.48;;;3.75;;
31306;SDS011;17935;51.120;13.132;2023-03-13T06:15:56;17.95;;;3.22;;
31306;SDS011;17935;51.120;13.132;2023-03-13T06:18:22;18.13;;;4.30;;
31306;SDS011;17935;51.120;13.132;2023-03-13T06:20:48;15.90;;;3.60;;
31306;SDS011;17935;51.120;13.132;2023-03-13T06:23:15;14.95;;;3.33;;
31306;SDS011;17935;51.120;13.132;2023-03-13T06:25:41;18.80;;;3.60;;
31306;SDS011;17935;51.120;13.132;2023-03-13T06:28:06;19.98;;;4.00;;
31306;SDS011;17935;51.120;13.132;2023-03-13T06:30:32;14.32;;;3.08;;
31306;SDS011;17935;51.120;13.132;2023-03-13T06:32:58;14.13;;;3.10;;
31306;SDS011;17935;51.120;13.132;2023-03-13T06:35:24;15.07;;;3.05;;
31306;SDS011;17935;51.120;13.132;2023-03-13T06:37:50;14.63;;;3.00;;
31306;SDS011;17935;51.120;13.132;2023-03-13T06:40:16;13.75;;;2.83;;
31306;SDS011;17935;51.120;13.132;2023-03-13T06:42:42;15.25;;;3.20;;
31306;SDS011;17935;51.120;13.132;2023-03-13T06:45:09;21.65;;;3.95;;
31306;SDS011;17935;51.120;13.132;2023-03-13T06:47:35;17.30;;;3.88;;
31306;SDS011;17935;51.120;13.132;2023-03-13T06:50:01;17.15;;;3.65;;
31306;SDS011;17935;51.120;13.132;2023-03-13T06:52:27;15.98;;;3.58;;
31306;SDS011;17935;51.120;13.132;2023-03-13T06:54:52;14.55;;;3.63;;
31306;SDS011;17935;51.120;13.132;2023-03-13T06:57:18;14.23;;;3.78;;
31306;SDS011;17935;51.120;13.132;2023-03-13T06:59:44;12.98;;;3.13;;
31306;SDS011;17935;51.120;13.132;2023-03-13T07:02:10;13.95;;;3.00;;
31306;SDS011;17935;51.120;13.132;2023-03-13T07:04:37;22.63;;;4.45;;
31306;SDS011;17935;51.120;13.132;2023-03-13T07:07:03;18.42;;;3.40;;
31306;SDS011;17935;51.120;13.132;2023-03-13T07:09:29;15.25;;;3.45;;
31306;SDS011;17935;51.120;13.132;2023-03-13T07:11:55;21.52;;;3.28;;
31306;SDS011;17935;51.120;13.132;2023-03-13T07:14:22;22.00;;;3.17;;
31306;SDS011;17935;51.120;13.132;2023-03-13T07:16:48;12.18;;;2.58;;
31306;SDS011;17935;51.120;13.132;2023-03-13T07:19:14;20.05;;;3.13;;
31306;SDS011;17935;51.120;13.132;2023-03-13T07:21:40;17.05;;;3.75;;
31306;SDS011;17935;51.120;13.132;2023-03-13T07:24:06;12.57;;;3.55;;
31306;SDS011;17935;51.120;13.132;2023-03-13T07:26:33;14.18;;;2.95;;
31306;SDS011;17935;51.120;13.132;2023-03-13T07:28:58;14.98;;;3.03;;
31306;SDS011;17935;51.120;13.132;2023-03-13T07:31:24;12.13;;;3.10;;
31306;SDS011;17935;51.120;13.132;2023-03-13T07:33:52;14.25;;;2.92;;
31306;SDS011;17935;51.120;13.132;2023-03-13T07:36:20;11.70;;;3.10;;
31306;SDS011;17935;51.120;13.132;2023-03-13T07:38:47;13.63;;;3.65;;
31306;SDS011;17935;51.120;13.132;2023-03-13T07:41:13;15.80;;;4.80;;
31306;SDS011;17935;51.120;13.132;2023-03-13T07:43:39;12.23;;;3.42;;
31306;SDS011;17935;51.120;13.132;2023-03-13T07:46:06;11.15;;;2.17;;
31306;SDS011;17935;51.120;13.132;2023-03-13T07:48:33;14.50;;;3.25;;
31306;SDS011;17935;51.120;13.132;2023-03-13T07:50:59;10.93;;;3.20;;
31306;SDS011;17935;51.120;13.132;2023-03-13T07:53:25;8.52;;;2.08;;
31306;SDS011;17935;51.120;13.132;2023-03-13T07:58:20;10.43;;;2.38;;
31306;SDS011;17935;51.120;13.132;2023-03-13T08:00:47;14.60;;;2.70;;
31306;SDS011;17935;51.120;13.132;2023-03-13T08:03:13;12.80;;;3.03;;
31306;SDS011;17935;51.120;13.132;2023-03-13T08:05:39;7.22;;;2.53;;
31306;SDS011;17935;51.120;13.132;2023-03-13T08:08:05;12.45;;;2.83;;
31306;SDS011;17935;51.120;13.132;2023-03-13T08:10:31;8.52;;;2.67;;
31306;SDS011;17935;51.120;13.132;2023-03-13T08:12:57;11.13;;;2.60;;
31306;SDS011;17935;51.120;13.132;2023-03-13T08:15:23;9.85;;;1.85;;
31306;SDS011;17935;51.120;13.132;2023-03-13T08:17:52;9.02;;;2.95;;
31306;SDS011;17935;51.120;13.132;2023-03-13T08:20:18;7.38;;;2.20;;
31306;SDS011;17935;51.120;13.132;2023-03-13T08:22:45;5.60;;;1.85;;
31306;SDS011;17935;51.120;13.132;2023-03-13T08:25:11;7.45;;;2.40;;
31306;SDS011;17935;51.120;13.132;2023-03-13T08:27:37;7.43;;;1.73;;
31306;SDS011;17935;51.120;13.132;2023-03-13T08:30:03;3.55;;;1.48;;
31306;SDS011;17935;51.120;13.132;2023-03-13T08:32:33;3.40;;;1.73;;
31306;SDS011;17935;51.120;13.132;2023-03-13T08:34:59;7.03;;;1.63;;
31306;SDS011;17935;51.120;13.132;2023-03-13T08:37:25;5.93;;;1.42;;
31306;SDS011;17935;51.120;13.132;2023-03-13T08:39:51;5.10;;;1.80;;
31306;SDS011;17935;51.120;13.132;2023-03-13T08:42:20;5.70;;;1.60;;
31306;SDS011;17935;51.120;13.132;2023-03-13T08:44:46;4.32;;;1.70;;
31306;SDS011;17935;51.120;13.132;2023-03-13T08:47:11;4.40;;;1.33;;
31306;SDS011;17935;51.120;13.132;2023-03-13T08:49:37;3.80;;;1.40;;
31306;SDS011;17935;51.120;13.132;2023-03-13T08:52:04;5.35;;;1.45;;
31306;SDS011;17935;51.120;13.132;2023-03-13T08:54:30;3.08;;;1.30;;
31306;SDS011;17935;51.120;13.132;2023-03-13T08:56:56;5.43;;;1.20;;
31306;SDS011;17935;51.120;13.132;2023-03-13T08:59:23;4.28;;;1.30;;
31306;SDS011;17935;51.120;13.132;2023-03-13T09:01:49;4.68;;;1.45;;
31306;SDS011;17935;51.120;13.132;2023-03-13T09:04:15;4.47;;;1.73;;
31306;SDS011;17935;51.120;13.132;2023-03-13T09:06:41;5.43;;;1.20;;
31306;SDS011;17935;51.120;13.132;2023-03-13T09:09:08;3.67;;;1.25;;
31306;SDS011;17935;51.120;13.132;2023-03-13T09:11:35;6.72;;;1.60;;
31306;SDS011;17935;51.120;13.132;2023-03-13T09:14:01;5.72;;;1.85;;
31306;SDS011;17935;51.120;13.132;2023-03-13T09:16:27;3.83;;;1.60;;
31306;SDS011;17935;51.120;13.132;2023-03-13T09:18:54;3.58;;;1.90;;
31306;SDS011;17935;51.120;13.132;2023-03-13T09:21:21;5.97;;;2.63;;
31306;SDS011;17935;51.120;13.132;2023-03-13T09:23:47;5.90;;;2.30;;
31306;SDS011;17935;51.120;13.132;2023-03-13T09:26:14;2.85;;;1.52;;
31306;SDS011;17935;51.120;13.132;2023-03-13T09:28:40;2.55;;;1.30;;
31306;SDS011;17935;51.120;13.132;2023-03-13T09:31:10;2.47;;;1.45;;
31306;SDS011;17935;51.120;13.132;2023-03-13T09:33:36;4.05;;;1.63;;
31306;SDS011;17935;51.120;13.132;2023-03-13T09:36:03;4.38;;;2.05;;
31306;SDS011;17935;51.120;13.132;2023-03-13T09:38:29;2.45;;;1.80;;
31306;SDS011;17935;51.120;13.132;2023-03-13T09:40:55;7.20;;;2.75;;
31306;SDS011;17935;51.120;13.132;2023-03-13T09:43:35;6.18;;;3.03;;
31306;SDS011;17935;51.120;13.132;2023-03-13T09:46:03;3.92;;;1.80;;
31306;SDS011;17935;51.120;13.132;2023-03-13T09:48:41;7.22;;;2.60;;
31306;SDS011;17935;51.120;13.132;2023-03-13T09:51:14;6.28;;;2.13;;
31306;SDS011;17935;51.120;13.132;2023-03-13T09:53:50;3.60;;;2.47;;
31306;SDS011;17935;51.120;13.132;2023-03-13T09:56:24;4.43;;;2.17;;
31306;SDS011;17935;51.120;13.132;2023-03-13T09:58:53;6.78;;;2.20;;
31306;SDS011;17935;51.120;13.132;2023-03-13T10:01:22;3.80;;;1.80;;
31306;SDS011;17935;51.120;13.132;2023-03-13T10:06:37;3.30;;;1.90;;
31306;SDS011;17935;51.120;13.132;2023-03-13T10:09:09;4.50;;;2.10;;
31306;SDS011;17935;51.120;13.132;2023-03-13T10:11:40;4.15;;;2.47;;
31306;SDS011;17935;51.120;13.132;2023-03-13T10:14:14;6.15;;;2.17;;
31306;SDS011;17935;51.120;13.132;2023-03-13T10:19:16;6.85;;;2.15;;
31306;SDS011;17935;51.120;13.132;2023-03-13T10:21:43;8.57;;;3.35;;
31306;SDS011;17935;51.120;13.132;2023-03-13T10:24:13;6.43;;;3.90;;
31306;SDS011;17935;51.120;13.132;2023-03-13T10:26:41;4.13;;;2.47;;
31306;SDS011;17935;51.120;13.132;2023-03-13T10:31:48;5.03;;;2.20;;
31306;SDS011;17935;51.120;13.132;2023-03-13T10:34:15;7.03;;;2.80;;
31306;SDS011;17935;51.120;13.132;2023-03-13T10:36:42;4.25;;;2.08;;
31306;SDS011;17935;51.120;13.132;2023-03-13T10:39:18;5.32;;;2.65;;
31306;SDS011;17935;51.120;13.132;2023-03-13T10:41:45;6.50;;;3.78;;
31306;SDS011;17935;51.120;13.132;2023-03-13T10:44:20;4.90;;;2.15;;
31306;SDS011;17935;51.120;13.132;2023-03-13T10:46:47;7.28;;;3.65;;
31306;SDS011;17935;51.120;13.132;2023-03-13T10:49:20;10.60;;;5.38;;
31306;SDS011;17935;51.120;13.132;2023-03-13T10:51:51;9.45;;;4.60;;
31306;SDS011;17935;51.120;13.132;2023-03-13T10:56:46;5.28;;;2.80;;
31306;SDS011;17935;51.120;13.132;2023-03-13T10:59:25;7.15;;;2.25;;
31306;SDS011;17935;51.120;13.132;2023-03-13T11:01:57;6.35;;;2.40;;
31306;SDS011;17935;51.120;13.132;2023-03-13T11:04:32;3.45;;;1.58;;
31306;SDS011;17935;51.120;13.132;2023-03-13T11:07:08;3.70;;;1.92;;
31306;SDS011;17935;51.120;13.132;2023-03-13T11:09:38;5.00;;;1.42;;
31306;SDS011;17935;51.120;13.132;2023-03-13T11:12:16;6.82;;;1.70;;
31306;SDS011;17935;51.120;13.132;2023-03-13T11:14:43;2.95;;;2.05;;
31306;SDS011;17935;51.120;13.132;2023-03-13T11:22:24;1.27;;;1.00;;
31306;SDS011;17935;51.120;13.132;2023-03-13T11:27:26;1.85;;;1.60;;
31306;SDS011;17935;51.120;13.132;2023-03-13T11:30:04;2.60;;;1.50;;
31306;SDS011;17935;51.120;13.132;2023-03-13T11:32:40;3.17;;;1.30;;
31306;SDS011;17935;51.120;13.132;2023-03-13T11:38:06;3.90;;;1.25;;
31306;SDS011;17935;51.120;13.132;2023-03-13T11:40:35;2.70;;;1.25;;
31306;SDS011;17935;51.120;13.132;2023-03-13T11:46:15;1.23;;;0.95;;
31306;SDS011;17935;51.120;13.132;2023-03-13T11:51:16;1.60;;;0.90;;
31306;SDS011;17935;51.120;13.132;2023-03-13T11:56:31;1.30;;;1.20;;
31306;SDS011;17935;51.120;13.132;2023-03-13T11:59:12;1.83;;;1.05;;
31306;SDS011;17935;51.120;13.132;2023-03-13T12:01:42;1.00;;;0.95;;
31306;SDS011;17935;51.120;13.132;2023-03-13T12:04:22;1.10;;;1.00;;
31306;SDS011;17935;51.120;13.132;2023-03-13T12:07:34;1.20;;;1.10;;
31306;SDS011;17935;51.120;13.132;2023-03-13T12:09:51;2.97;;;1.13;;
31306;SDS011;17935;51.120;13.132;2023-03-13T12:17:36;1.90;;;1.10;;
31306;SDS011;17935;51.120;13.132;2023-03-13T12:20:18;1.48;;;0.82;;
31306;SDS011;17935;51.120;13.132;2023-03-13T12:22:48;1.55;;;1.10;;
31306;SDS011;17935;51.120;13.132;2023-03-13T12:25:18;2.80;;;1.00;;
31306;SDS011;17935;51.120;13.132;2023-03-13T12:27:53;1.27;;;0.80;;
31306;SDS011;17935;51.120;13.132;2023-03-13T12:30:30;1.67;;;0.73;;
31306;SDS011;17935;51.120;13.132;2023-03-13T12:33:05;1.00;;;0.90;;
31306;SDS011;17935;51.120;13.132;2023-03-13T12:35:38;3.53;;;0.90;;
31306;SDS011;17935;51.120;13.132;2023-03-13T12:43:28;1.70;;;0.93;;
31306;SDS011;17935;51.120;13.132;2023-03-13T12:48:43;1.08;;;0.93;;
31306;SDS011;17935;51.120;13.132;2023-03-13T12:56:30;1.48;;;1.00;;
31306;SDS011;17935;51.120;13.132;2023-03-13T12:59:02;2.70;;;0.90;;
31306;SDS011;17935;51.120;13.132;2023-03-13T13:01:33;2.60;;;1.30;;
31306;SDS011;17935;51.120;13.132;2023-03-13T13:04:13;1.55;;;1.05;;
31306;SDS011;17935;51.120;13.132;2023-03-13T13:06:49;4.75;;;1.10;;
31306;SDS011;17935;51.120;13.132;2023-03-13T13:09:18;2.28;;;1.10;;
31306;SDS011;17935;51.120;13.132;2023-03-13T13:11:45;1.10;;;1.00;;
31306;SDS011;17935;51.120;13.132;2023-03-13T13:16:44;3.67;;;2.08;;
31306;SDS011;17935;51.120;13.132;2023-03-13T13:24:49;2.08;;;1.00;;
31306;SDS011;17935;51.120;13.132;2023-03-13T13:27:44;0.98;;;0.93;;
31306;SDS011;17935;51.120;13.132;2023-03-13T13:32:43;2.47;;;1.02;;
31306;SDS011;17935;51.120;13.132;2023-03-13T13:40:56;3.65;;;1.00;;
31306;SDS011;17935;51.120;13.132;2023-03-13T13:43:23;2.58;;;1.13;;
31306;SDS011;17935;51.120;13.132;2023-03-13T13:45:59;1.52;;;1.00;;
31306;SDS011;17935;51.120;13.132;2023-03-13T13:48:32;4.50;;;1.20;;
31306;SDS011;17935;51.120;13.132;2023-03-13T14:01:22;2.53;;;1.30;;
31306;SDS011;17935;51.120;13.132;2023-03-13T14:03:49;1.88;;;1.48;;
31306;SDS011;17935;51.120;13.132;2023-03-13T14:06:27;4.32;;;1.35;;
31306;SDS011;17935;51.120;13.132;2023-03-13T14:08:56;4.38;;;1.40;;
31306;SDS011;17935;51.120;13.132;2023-03-13T14:11:28;3.20;;;1.40;;
31306;SDS011;17935;51.120;13.132;2023-03-13T14:14:07;3.60;;;1.67;;
31306;SDS011;17935;51.120;13.132;2023-03-13T14:16:33;3.67;;;1.33;;
31306;SDS011;17935;51.120;13.132;2023-03-13T14:18:59;2.10;;;1.10;;
31306;SDS011;17935;51.120;13.132;2023-03-13T14:21:25;2.30;;;1.27;;
31306;SDS011;17935;51.120;13.132;2023-03-13T14:23:51;2.45;;;1.10;;
31306;SDS011;17935;51.120;13.132;2023-03-13T14:26:19;2.83;;;1.23;;
31306;SDS011;17935;51.120;13.132;2023-03-13T14:28:46;3.95;;;1.45;;
31306;SDS011;17935;51.120;13.132;2023-03-13T14:33:54;2.28;;;1.33;;
31306;SDS011;17935;51.120;13.132;2023-03-13T14:36:21;2.95;;;1.60;;
31306;SDS011;17935;51.120;13.132;2023-03-13T14:38:57;1.40;;;1.30;;
31306;SDS011;17935;51.120;13.132;2023-03-13T14:41:26;3.55;;;1.63;;
31306;SDS011;17935;51.120;13.132;2023-03-13T14:43:52;1.52;;;1.40;;
31306;SDS011;17935;51.120;13.132;2023-03-13T14:46:28;2.58;;;1.38;;
31306;SDS011;17935;51.120;13.132;2023-03-13T14:48:54;4.32;;;1.60;;
31306;SDS011;17935;51.120;13.132;2023-03-13T14:51:22;4.47;;;1.42;;
31306;SDS011;17935;51.120;13.132;2023-03-13T14:53:55;4.30;;;1.67;;
31306;SDS011;17935;51.120;13.132;2023-03-13T14:56:29;2.97;;;1.70;;
31306;SDS011;17935;51.120;13.132;2023-03-13T15:01:25;3.92;;;1.27;;
31306;SDS011;17935;51.120;13.132;2023-03-13T15:03:55;6.97;;;1.80;;
31306;SDS011;17935;51.120;13.132;2023-03-13T15:06:24;2.00;;;1.27;;
31306;SDS011;17935;51.120;13.132;2023-03-13T15:11:53;1.65;;;1.45;;
31306;SDS011;17935;51.120;13.132;2023-03-13T15:17:15;2.40;;;1.50;;
31306;SDS011;17935;51.120;13.132;2023-03-13T15:19:42;4.18;;;1.38;;
31306;SDS011;17935;51.120;13.132;2023-03-13T15:22:12;3.03;;;2.20;;
31306;SDS011;17935;51.120;13.132;2023-03-13T15:24:39;4.13;;;1.70;;
31306;SDS011;17935;51.120;13.132;2023-03-13T15:27:14;4.45;;;2.05;;
31306;SDS011;17935;51.120;13.132;2023-03-13T15:29:41;3.55;;;1.85;;
31306;SDS011;17935;51.120;13.132;2023-03-13T15:32:09;3.38;;;1.20;;
31306;SDS011;17935;51.120;13.132;2023-03-13T15:34:36;1.80;;;1.40;;
31306;SDS011;17935;51.120;13.132;2023-03-13T15:37:02;1.80;;;1.48;;
31306;SDS011;17935;51.120;13.132;2023-03-13T15:39:28;4.72;;;1.90;;
31306;SDS011;17935;51.120;13.132;2023-03-13T15:41:54;6.78;;;1.70;;
31306;SDS011;17935;51.120;13.132;2023-03-13T15:44:20;5.35;;;1.63;;
31306;SDS011;17935;51.120;13.132;2023-03-13T15:46:46;2.95;;;1.23;;
31306;SDS011;17935;51.120;13.132;2023-03-13T15:49:12;2.88;;;1.60;;
31306;SDS011;17935;51.120;13.132;2023-03-13T15:51:38;2.25;;;1.70;;
31306;SDS011;17935;51.120;13.132;2023-03-13T15:54:04;2.70;;;1.67;;
31306;SDS011;17935;51.120;13.132;2023-03-13T15:56:33;2.40;;;2.10;;
31306;SDS011;17935;51.120;13.132;2023-03-13T15:58:59;2.65;;;2.00;;
31306;SDS011;17935;51.120;13.132;2023-03-13T16:01:25;4.97;;;2.75;;
31306;SDS011;17935;51.120;13.132;2023-03-13T16:03:52;2.40;;;1.88;;
31306;SDS011;17935;51.120;13.132;2023-03-13T16:06:19;4.78;;;2.00;;
31306;SDS011;17935;51.120;13.132;2023-03-13T16:08:51;3.03;;;2.03;;
31306;SDS011;17935;51.120;13.132;2023-03-13T16:11:17;4.47;;;2.00;;
31306;SDS011;17935;51.120;13.132;2023-03-13T16:13:43;3.67;;;2.20;;
31306;SDS011;17935;51.120;13.132;2023-03-13T16:16:16;4.38;;;2.53;;
31306;SDS011;17935;51.120;13.132;2023-03-13T16:18:43;3.92;;;2.60;;
31306;SDS011;17935;51.120;13.132;2023-03-13T16:21:11;5.20;;;2.05;;
31306;SDS011;17935;51.120;13.132;2023-03-13T16:23:39;4.00;;;2.50;;
31306;SDS011;17935;51.120;13.132;2023-03-13T16:26:08;3.47;;;1.90;;
31306;SDS011;17935;51.120;13.132;2023-03-13T16:28:37;4.18;;;1.98;;
31306;SDS011;17935;51.120;13.132;2023-03-13T16:31:03;2.80;;;2.10;;
31306;SDS011;17935;51.120;13.132;2023-03-13T16:33:29;3.65;;;2.42;;
31306;SDS011;17935;51.120;13.132;2023-03-13T16:35:54;8.00;;;2.20;;
31306;SDS011;17935;51.120;13.132;2023-03-13T16:38:20;4.28;;;2.45;;
31306;SDS011;17935;51.120;13.132;2023-03-13T16:40:46;4.15;;;2.35;;
31306;SDS011;17935;51.120;13.132;2023-03-13T16:43:12;3.72;;;2.75;;
31306;SDS011;17935;51.120;13.132;2023-03-13T16:45:41;6.03;;;3.40;;